Townsend, Montana
Current Conditions -  °F | °C
As of 8:53 AM on Sunday 25 Jan 2015 (Local Time) from KHLN Reporting Station
Few Clouds Few Clouds  
Wind Chill: 52°   Ceiling: Unl
Heat Index: 52°   Visibility: 10mi
Dew Point: 36°   Wind: 12mph
Humidity: 54%   Direction: 280°W
Pressure: 30.14"   Gusts: 23mph
Location:  46.32°N, 111.52°W
Report Text: KHLN 251553Z 28010G20KT 10SM FEW110 11/02 A3014 RMK AO2 SLP219 T01110022
Loading
Personal Weather Stations






























Interactive Weather Map New forecast layout! Learn more

10-Day Weather Forecast

Advertisements
Track Severe Weather on mobile